sensor_id;sensor_type;location;lat;lon;timestamp;pressure;altitude;pressure_sealevel;temperature;humidity
2875;BME280;1445;52.600;13.328;2023-09-08T00:02:18;101601.00;;;20.09;nan
2875;BME280;1445;52.600;13.328;2023-09-08T00:04:44;101594.34;;;20.13;nan
2875;BME280;1445;52.600;13.328;2023-09-08T00:07:09;101588.06;;;20.16;nan
2875;BME280;1445;52.600;13.328;2023-09-08T00:09:35;101593.78;;;20.20;nan
2875;BME280;1445;52.600;13.328;2023-09-08T00:12:00;101585.13;;;20.13;nan
2875;BME280;1445;52.600;13.328;2023-09-08T00:14:26;101593.03;;;20.11;nan
2875;BME280;1445;52.600;13.328;2023-09-08T00:16:52;101592.09;;;20.07;nan
2875;BME280;1445;52.600;13.328;2023-09-08T00:19:21;101589.66;;;20.05;nan
2875;BME280;1445;52.600;13.328;2023-09-08T00:21:46;101592.66;;;20.00;nan
2875;BME280;1445;52.600;13.328;2023-09-08T00:24:12;101592.41;;;19.93;nan
2875;BME280;1445;52.600;13.328;2023-09-08T00:26:37;101587.44;;;19.98;nan
2875;BME280;1445;52.600;13.328;2023-09-08T00:29:03;101594.88;;;19.94;nan
2875;BME280;1445;52.600;13.328;2023-09-08T00:31:28;101590.31;;;19.90;nan
2875;BME280;1445;52.600;13.328;2023-09-08T00:33:54;101584.94;;;19.85;nan
2875;BME280;1445;52.600;13.328;2023-09-08T00:36:20;101572.81;;;19.93;nan
2875;BME280;1445;52.600;13.328;2023-09-08T00:38:45;101586.69;;;19.89;nan
2875;BME280;1445;52.600;13.328;2023-09-08T00:41:11;101584.81;;;19.81;nan
2875;BME280;1445;52.600;13.328;2023-09-08T00:43:36;101584.66;;;19.77;nan
2875;BME280;1445;52.600;13.328;2023-09-08T00:46:02;101584.53;;;19.74;nan
2875;BME280;1445;52.600;13.328;2023-09-08T00:48:28;101587.09;;;19.67;nan
2875;BME280;1445;52.600;13.328;2023-09-08T00:50:54;101593.69;;;19.62;nan
2875;BME280;1445;52.600;13.328;2023-09-08T00:53:20;101592.44;;;19.51;nan
2875;BME280;1445;52.600;13.328;2023-09-08T00:55:46;101588.69;;;19.47;nan
2875;BME280;1445;52.600;13.328;2023-09-08T00:58:12;101586.56;;;19.44;nan
2875;BME280;1445;52.600;13.328;2023-09-08T01:00:37;101593.13;;;19.48;nan
2875;BME280;1445;52.600;13.328;2023-09-08T01:03:03;101589.72;;;19.42;nan
2875;BME280;1445;52.600;13.328;2023-09-08T01:05:29;101589.03;;;19.45;nan
2875;BME280;1445;52.600;13.328;2023-09-08T01:07:55;101590.25;;;19.36;nan
2875;BME280;1445;52.600;13.328;2023-09-08T01:10:21;101585.22;;;19.29;nan
2875;BME280;1445;52.600;13.328;2023-09-08T01:12:47;101582.91;;;19.31;nan
2875;BME280;1445;52.600;13.328;2023-09-08T01:15:12;101582.22;;;19.34;nan
2875;BME280;1445;52.600;13.328;2023-09-08T01:17:38;101583.84;;;19.35;nan
2875;BME280;1445;52.600;13.328;2023-09-08T01:25:57;101573.00;;;19.34;nan
2875;BME280;1445;52.600;13.328;2023-09-08T01:28:25;101574.03;;;19.29;nan
2875;BME280;1445;52.600;13.328;2023-09-08T01:30:52;101572.28;;;19.24;nan
2875;BME280;1445;52.600;13.328;2023-09-08T01:33:19;101574.84;;;19.29;nan
2875;BME280;1445;52.600;13.328;2023-09-08T01:35:45;101563.81;;;19.33;nan
2875;BME280;1445;52.600;13.328;2023-09-08T01:38:10;101561.34;;;19.31;nan
2875;BME280;1445;52.600;13.328;2023-09-08T01:40:36;101565.31;;;19.30;nan
2875;BME280;1445;52.600;13.328;2023-09-08T01:43:01;101564.47;;;19.30;nan
2875;BME280;1445;52.600;13.328;2023-09-08T01:45:27;101558.88;;;19.30;nan
2875;BME280;1445;52.600;13.328;2023-09-08T01:47:52;101562.53;;;19.30;nan
2875;BME280;1445;52.600;13.328;2023-09-08T01:50:18;101560.88;;;19.29;nan
2875;BME280;1445;52.600;13.328;2023-09-08T01:52:48;101569.38;;;19.33;nan
2875;BME280;1445;52.600;13.328;2023-09-08T01:55:14;101564.84;;;19.28;nan
2875;BME280;1445;52.600;13.328;2023-09-08T01:57:44;101559.09;;;19.25;nan
2875;BME280;1445;52.600;13.328;2023-09-08T02:00:10;101563.25;;;19.19;nan
2875;BME280;1445;52.600;13.328;2023-09-08T02:02:36;101557.53;;;19.15;nan
2875;BME280;1445;52.600;13.328;2023-09-08T02:05:02;101558.47;;;19.19;nan
2875;BME280;1445;52.600;13.328;2023-09-08T02:07:28;101553.56;;;19.16;nan
2875;BME280;1445;52.600;13.328;2023-09-08T02:09:54;101555.91;;;19.14;nan
2875;BME280;1445;52.600;13.328;2023-09-08T02:12:21;101548.09;;;18.99;nan
2875;BME280;1445;52.600;13.328;2023-09-08T02:14:46;101553.69;;;18.99;nan
2875;BME280;1445;52.600;13.328;2023-09-08T02:17:12;101553.22;;;18.97;nan
2875;BME280;1445;52.600;13.328;2023-09-08T02:19:37;101552.28;;;18.93;nan
2875;BME280;1445;52.600;13.328;2023-09-08T02:22:03;101552.41;;;18.96;nan
2875;BME280;1445;52.600;13.328;2023-09-08T02:24:29;101547.16;;;18.95;nan
2875;BME280;1445;52.600;13.328;2023-09-08T02:26:54;101548.44;;;18.97;nan
2875;BME280;1445;52.600;13.328;2023-09-08T02:29:20;101544.88;;;18.88;nan
2875;BME280;1445;52.600;13.328;2023-09-08T02:31:45;101549.78;;;18.91;nan
2875;BME280;1445;52.600;13.328;2023-09-08T02:34:11;101550.97;;;18.90;nan
2875;BME280;1445;52.600;13.328;2023-09-08T02:36:38;101552.13;;;18.89;nan
2875;BME280;1445;52.600;13.328;2023-09-08T02:39:04;101552.38;;;18.75;nan
2875;BME280;1445;52.600;13.328;2023-09-08T02:41:29;101555.31;;;18.79;nan
2875;BME280;1445;52.600;13.328;2023-09-08T02:43:56;101554.50;;;18.70;nan
2875;BME280;1445;52.600;13.328;2023-09-08T02:46:21;101550.75;;;18.66;nan
2875;BME280;1445;52.600;13.328;2023-09-08T02:48:47;101544.50;;;18.69;nan
2875;BME280;1445;52.600;13.328;2023-09-08T02:51:13;101542.00;;;18.67;nan
2875;BME280;1445;52.600;13.328;2023-09-08T02:53:38;101549.78;;;18.62;nan
2875;BME280;1445;52.600;13.328;2023-09-08T02:56:04;101538.75;;;18.65;nan
2875;BME280;1445;52.600;13.328;2023-09-08T02:58:31;101547.00;;;18.62;nan
2875;BME280;1445;52.600;13.328;2023-09-08T03:01:16;101540.78;;;18.56;nan
2875;BME280;1445;52.600;13.328;2023-09-08T03:03:46;101537.31;;;18.59;nan
2875;BME280;1445;52.600;13.328;2023-09-08T03:06:14;101539.28;;;18.58;nan
2875;BME280;1445;52.600;13.328;2023-09-08T03:08:39;101537.97;;;18.56;nan
2875;BME280;1445;52.600;13.328;2023-09-08T03:11:05;101541.44;;;18.53;nan
2875;BME280;1445;52.600;13.328;2023-09-08T03:13:35;101533.63;;;18.46;nan
2875;BME280;1445;52.600;13.328;2023-09-08T03:16:05;101531.78;;;18.50;nan
2875;BME280;1445;52.600;13.328;2023-09-08T03:18:34;101529.03;;;18.42;nan
2875;BME280;1445;52.600;13.328;2023-09-08T03:21:04;101536.22;;;18.51;nan
2875;BME280;1445;52.600;13.328;2023-09-08T03:23:40;101537.06;;;18.43;nan
2875;BME280;1445;52.600;13.328;2023-09-08T03:26:06;101533.13;;;18.44;nan
2875;BME280;1445;52.600;13.328;2023-09-08T03:28:33;101530.19;;;18.41;nan
2875;BME280;1445;52.600;13.328;2023-09-08T03:30:59;101529.38;;;18.40;nan
2875;BME280;1445;52.600;13.328;2023-09-08T03:33:24;101537.59;;;18.36;nan
2875;BME280;1445;52.600;13.328;2023-09-08T03:35:50;101542.50;;;18.40;nan
2875;BME280;1445;52.600;13.328;2023-09-08T03:38:15;101540.56;;;18.31;nan
2875;BME280;1445;52.600;13.328;2023-09-08T03:40:41;101538.78;;;18.27;nan
2875;BME280;1445;52.600;13.328;2023-09-08T03:43:07;101543.06;;;18.24;nan
2875;BME280;1445;52.600;13.328;2023-09-08T03:45:33;101539.59;;;18.27;nan
2875;BME280;1445;52.600;13.328;2023-09-08T03:47:58;101543.34;;;18.31;nan
2875;BME280;1445;52.600;13.328;2023-09-08T03:50:24;101550.13;;;18.22;nan
2875;BME280;1445;52.600;13.328;2023-09-08T03:52:50;101546.66;;;18.25;nan
2875;BME280;1445;52.600;13.328;2023-09-08T03:55:15;101547.34;;;18.22;nan
2875;BME280;1445;52.600;13.328;2023-09-08T03:57:42;101551.28;;;18.21;nan
2875;BME280;1445;52.600;13.328;2023-09-08T04:00:08;101549.28;;;18.21;nan
2875;BME280;1445;52.600;13.328;2023-09-08T04:02:36;101549.50;;;18.16;nan
2875;BME280;1445;52.600;13.328;2023-09-08T04:05:01;101555.22;;;18.11;nan
2875;BME280;1445;52.600;13.328;2023-09-08T04:07:28;101553.75;;;18.13;nan
2875;BME280;1445;52.600;13.328;2023-09-08T04:09:54;101553.28;;;18.11;nan
2875;BME280;1445;52.600;13.328;2023-09-08T04:12:19;101553.44;;;18.15;nan
2875;BME280;1445;52.600;13.328;2023-09-08T04:14:45;101557.22;;;18.10;nan
2875;BME280;1445;52.600;13.328;2023-09-08T04:17:10;101547.09;;;17.97;nan
2875;BME280;1445;52.600;13.328;2023-09-08T04:19:36;101547.75;;;17.94;nan
2875;BME280;1445;52.600;13.328;2023-09-08T04:22:01;101555.16;;;17.90;nan
2875;BME280;1445;52.600;13.328;2023-09-08T04:24:27;101555.16;;;17.90;nan
2875;BME280;1445;52.600;13.328;2023-09-08T04:26:53;101552.69;;;17.97;nan
2875;BME280;1445;52.600;13.328;2023-09-08T04:29:18;101557.59;;;17.83;nan
2875;BME280;1445;52.600;13.328;2023-09-08T04:31:44;101553.03;;;17.87;nan
2875;BME280;1445;52.600;13.328;2023-09-08T04:34:09;101561.72;;;17.85;nan
2875;BME280;1445;52.600;13.328;2023-09-08T04:36:35;101558.59;;;17.78;nan
2875;BME280;1445;52.600;13.328;2023-09-08T04:39:01;101554.34;;;17.81;nan
2875;BME280;1445;52.600;13.328;2023-09-08T04:41:26;101560.09;;;17.84;nan
2875;BME280;1445;52.600;13.328;2023-09-08T04:43:52;101562.72;;;17.81;nan
2875;BME280;1445;52.600;13.328;2023-09-08T04:46:18;101565.16;;;17.74;nan
2875;BME280;1445;52.600;13.328;2023-09-08T04:48:43;101560.59;;;17.78;nan
2875;BME280;1445;52.600;13.328;2023-09-08T04:51:09;101561.72;;;17.68;nan
2875;BME280;1445;52.600;13.328;2023-09-08T04:53:34;101567.78;;;17.70;nan
2875;BME280;1445;52.600;13.328;2023-09-08T04:56:01;101559.41;;;17.70;nan
2875;BME280;1445;52.600;13.328;2023-09-08T04:58:27;101569.09;;;17.64;nan
2875;BME280;1445;52.600;13.328;2023-09-08T05:00:52;101569.25;;;17.68;nan
2875;BME280;1445;52.600;13.328;2023-09-08T05:03:18;101561.06;;;17.71;nan
2875;BME280;1445;52.600;13.328;2023-09-08T05:05:44;101567.94;;;17.74;nan
2875;BME280;1445;52.600;13.328;2023-09-08T05:08:10;101566.16;;;17.78;nan
2875;BME280;1445;52.600;13.328;2023-09-08T05:10:35;101566.66;;;17.80;nan
2875;BME280;1445;52.600;13.328;2023-09-08T05:13:01;101568.59;;;17.88;nan
2875;BME280;1445;52.600;13.328;2023-09-08T05:15:26;101561.06;;;17.97;nan
2875;BME280;1445;52.600;13.328;2023-09-08T05:17:52;101559.19;;;18.10;nan
2875;BME280;1445;52.600;13.328;2023-09-08T05:20:18;101556.22;;;18.15;nan
2875;BME280;1445;52.600;13.328;2023-09-08T05:22:43;101558.84;;;18.20;nan
2875;BME280;1445;52.600;13.328;2023-09-08T05:25:09;101555.56;;;18.18;nan
2875;BME280;1445;52.600;13.328;2023-09-08T05:27:35;101554.06;;;18.21;nan
2875;BME280;1445;52.600;13.328;2023-09-08T05:30:03;101557.81;;;18.25;nan
2875;BME280;1445;52.600;13.328;2023-09-08T05:32:29;101564.72;;;18.27;nan
2875;BME280;1445;52.600;13.328;2023-09-08T05:34:55;101561.25;;;18.30;nan
2875;BME280;1445;52.600;13.328;2023-09-08T05:37:20;101563.19;;;18.39;nan
2875;BME280;1445;52.600;13.328;2023-09-08T05:39:46;101557.47;;;18.35;nan
2875;BME280;1445;52.600;13.328;2023-09-08T05:42:11;101557.75;;;18.42;nan
2875;BME280;1445;52.600;13.328;2023-09-08T05:44:37;101562.22;;;18.43;nan
2875;BME280;1445;52.600;13.328;2023-09-08T05:47:03;101554.81;;;18.39;nan
2875;BME280;1445;52.600;13.328;2023-09-08T05:49:29;101559.72;;;18.50;nan
2875;BME280;1445;52.600;13.328;2023-09-08T05:51:55;101557.06;;;18.54;nan
2875;BME280;1445;52.600;13.328;2023-09-08T05:54:20;101553.91;;;18.55;nan
2875;BME280;1445;52.600;13.328;2023-09-08T05:56:46;101557.81;;;18.72;nan
2875;BME280;1445;52.600;13.328;2023-09-08T05:59:11;101561.44;;;18.64;nan
2875;BME280;1445;52.600;13.328;2023-09-08T06:01:37;101561.56;;;18.76;nan
2875;BME280;1445;52.600;13.328;2023-09-08T06:04:03;101558.91;;;18.79;nan
2875;BME280;1445;52.600;13.328;2023-09-08T06:06:28;101558.84;;;18.88;nan
2875;BME280;1445;52.600;13.328;2023-09-08T06:08:54;101555.59;;;18.86;nan
2875;BME280;1445;52.600;13.328;2023-09-08T06:11:20;101559.13;;;18.95;nan
2875;BME280;1445;52.600;13.328;2023-09-08T06:13:45;101556.97;;;19.01;nan
2875;BME280;1445;52.600;13.328;2023-09-08T06:16:11;101551.13;;;19.15;nan
2875;BME280;1445;52.600;13.328;2023-09-08T06:18:37;101548.59;;;19.22;nan
2875;BME280;1445;52.600;13.328;2023-09-08T06:21:06;101544.19;;;19.21;nan
2875;BME280;1445;52.600;13.328;2023-09-08T06:23:33;101542.81;;;19.27;nan
2875;BME280;1445;52.600;13.328;2023-09-08T06:25:59;101537.50;;;19.34;nan
2875;BME280;1445;52.600;13.328;2023-09-08T06:28:26;101549.63;;;19.38;nan
2875;BME280;1445;52.600;13.328;2023-09-08T06:30:52;101547.69;;;19.51;nan
2875;BME280;1445;52.600;13.328;2023-09-08T06:33:17;101541.66;;;19.61;nan
2875;BME280;1445;52.600;13.328;2023-09-08T06:35:43;101530.78;;;19.68;nan
2875;BME280;1445;52.600;13.328;2023-09-08T06:38:09;101535.47;;;19.76;nan
2875;BME280;1445;52.600;13.328;2023-09-08T06:40:35;101536.69;;;19.88;nan
2875;BME280;1445;52.600;13.328;2023-09-08T06:43:00;101527.97;;;20.01;nan
2875;BME280;1445;52.600;13.328;2023-09-08T06:45:26;101529.50;;;20.11;nan
2875;BME280;1445;52.600;13.328;2023-09-08T06:47:51;101517.81;;;20.21;nan
2875;BME280;1445;52.600;13.328;2023-09-08T06:50:21;101524.03;;;20.27;nan
2875;BME280;1445;52.600;13.328;2023-09-08T06:52:49;101522.88;;;20.40;nan
2875;BME280;1445;52.600;13.328;2023-09-08T06:55:15;101512.03;;;20.51;nan
2875;BME280;1445;52.600;13.328;2023-09-08T06:57:42;101508.19;;;20.56;nan
2875;BME280;1445;52.600;13.328;2023-09-08T07:00:11;101507.38;;;20.67;nan
2875;BME280;1445;52.600;13.328;2023-09-08T07:02:38;101511.09;;;20.71;nan
2875;BME280;1445;52.600;13.328;2023-09-08T07:05:04;101508.75;;;20.86;nan
2875;BME280;1445;52.600;13.328;2023-09-08T07:07:36;101508.16;;;20.92;nan
2875;BME280;1445;52.600;13.328;2023-09-08T07:10:04;101508.09;;;21.05;nan
2875;BME280;1445;52.600;13.328;2023-09-08T07:12:30;101508.78;;;21.14;nan
2875;BME280;1445;52.600;13.328;2023-09-08T07:14:56;101512.00;;;21.28;nan
2875;BME280;1445;52.600;13.328;2023-09-08T07:17:22;101513.16;;;21.39;nan
2875;BME280;1445;52.600;13.328;2023-09-08T07:19:51;101511.94;;;21.53;nan
2875;BME280;1445;52.600;13.328;2023-09-08T07:22:18;101503.81;;;21.63;nan
2875;BME280;1445;52.600;13.328;2023-09-08T07:24:44;101513.34;;;21.75;nan
2875;BME280;1445;52.600;13.328;2023-09-08T07:27:13;101508.75;;;21.82;nan
2875;BME280;1445;52.600;13.328;2023-09-08T07:29:40;101512.09;;;22.04;nan
2875;BME280;1445;52.600;13.328;2023-09-08T07:32:06;101508.31;;;22.12;nan
2875;BME280;1445;52.600;13.328;2023-09-08T07:34:32;101506.63;;;22.23;nan
2875;BME280;1445;52.600;13.328;2023-09-08T07:36:57;101512.44;;;22.30;nan
2875;BME280;1445;52.600;13.328;2023-09-08T07:39:23;101515.88;;;22.39;nan
2875;BME280;1445;52.600;13.328;2023-09-08T07:41:49;101514.88;;;22.48;nan
2875;BME280;1445;52.600;13.328;2023-09-08T07:44:14;101514.13;;;22.51;nan
2875;BME280;1445;52.600;13.328;2023-09-08T07:46:40;101517.63;;;22.63;nan
2875;BME280;1445;52.600;13.328;2023-09-08T07:49:05;101518.47;;;22.64;nan
2875;BME280;1445;52.600;13.328;2023-09-08T07:51:31;101523.50;;;22.74;nan
2875;BME280;1445;52.600;13.328;2023-09-08T07:53:56;101521.84;;;22.89;nan
2875;BME280;1445;52.600;13.328;2023-09-08T07:56:23;101526.47;;;22.97;nan
2875;BME280;1445;52.600;13.328;2023-09-08T07:58:48;101526.09;;;22.99;nan
2875;BME280;1445;52.600;13.328;2023-09-08T08:01:14;101524.78;;;23.12;nan
2875;BME280;1445;52.600;13.328;2023-09-08T08:03:41;101524.53;;;23.17;nan
2875;BME280;1445;52.600;13.328;2023-09-08T08:06:06;101518.88;;;23.37;nan
2875;BME280;1445;52.600;13.328;2023-09-08T08:08:33;101524.00;;;23.50;nan
2875;BME280;1445;52.600;13.328;2023-09-08T08:11:17;101521.03;;;23.63;nan
2875;BME280;1445;52.600;13.328;2023-09-08T08:13:43;101519.41;;;23.81;nan
2875;BME280;1445;52.600;13.328;2023-09-08T08:16:10;101521.81;;;23.83;nan
2875;BME280;1445;52.600;13.328;2023-09-08T08:18:36;101524.03;;;23.93;nan
2875;BME280;1445;52.600;13.328;2023-09-08T08:21:03;101523.97;;;23.89;nan
2875;BME280;1445;52.600;13.328;2023-09-08T08:23:29;101517.59;;;23.92;nan
2875;BME280;1445;52.600;13.328;2023-09-08T08:25:56;101509.03;;;24.08;nan
2875;BME280;1445;52.600;13.328;2023-09-08T08:28:22;101514.59;;;24.27;nan
2875;BME280;1445;52.600;13.328;2023-09-08T08:30:48;101510.69;;;24.36;nan
2875;BME280;1445;52.600;13.328;2023-09-08T08:33:14;101506.03;;;24.43;nan
2875;BME280;1445;52.600;13.328;2023-09-08T08:35:40;101512.13;;;24.49;nan
2875;BME280;1445;52.600;13.328;2023-09-08T08:38:06;101498.66;;;24.62;nan
2875;BME280;1445;52.600;13.328;2023-09-08T08:40:31;101494.78;;;24.73;nan
2875;BME280;1445;52.600;13.328;2023-09-08T08:42:59;101499.88;;;24.91;nan
2875;BME280;1445;52.600;13.328;2023-09-08T08:45:26;101500.72;;;24.95;nan
2875;BME280;1445;52.600;13.328;2023-09-08T08:47:53;101500.50;;;25.07;nan
2875;BME280;1445;52.600;13.328;2023-09-08T08:50:20;101501.94;;;25.20;nan
2875;BME280;1445;52.600;13.328;2023-09-08T08:52:46;101494.78;;;25.30;nan
2875;BME280;1445;52.600;13.328;2023-09-08T08:55:13;101493.53;;;25.28;nan
2875;BME280;1445;52.600;13.328;2023-09-08T08:57:41;101486.06;;;25.42;nan
2875;BME280;1445;52.600;13.328;2023-09-08T09:00:08;101486.97;;;25.54;nan
2875;BME280;1445;52.600;13.328;2023-09-08T09:02:42;101492.94;;;25.45;nan
2875;BME280;1445;52.600;13.328;2023-09-08T09:05:12;101486.00;;;25.39;nan
2875;BME280;1445;52.600;13.328;2023-09-08T09:07:40;101488.22;;;25.56;nan
2875;BME280;1445;52.600;13.328;2023-09-08T09:10:07;101494.88;;;25.75;nan
2875;BME280;1445;52.600;13.328;2023-09-08T09:12:32;101495.63;;;26.05;nan
2875;BME280;1445;52.600;13.328;2023-09-08T09:14:59;101488.03;;;26.16;nan
2875;BME280;1445;52.600;13.328;2023-09-08T09:17:32;101488.97;;;26.35;nan
2875;BME280;1445;52.600;13.328;2023-09-08T09:20:16;101487.09;;;26.50;nan
2875;BME280;1445;52.600;13.328;2023-09-08T09:22:44;101492.41;;;26.58;nan
2875;BME280;1445;52.600;13.328;2023-09-08T09:25:09;101488.44;;;26.67;nan
2875;BME280;1445;52.600;13.328;2023-09-08T09:27:36;101487.31;;;26.82;nan
2875;BME280;1445;52.600;13.328;2023-09-08T09:30:04;101486.06;;;26.72;nan
2875;BME280;1445;52.600;13.328;2023-09-08T09:32:30;101487.38;;;26.89;nan
2875;BME280;1445;52.600;13.328;2023-09-08T09:34:57;101484.16;;;26.98;nan
2875;BME280;1445;52.600;13.328;2023-09-08T09:37:26;101483.88;;;27.17;nan
2875;BME280;1445;52.600;13.328;2023-09-08T09:39:53;101479.94;;;27.50;nan
2875;BME280;1445;52.600;13.328;2023-09-08T09:42:20;101475.59;;;27.85;nan
2875;BME280;1445;52.600;13.328;2023-09-08T09:44:47;101479.66;;;28.16;nan
2875;BME280;1445;52.600;13.328;2023-09-08T09:47:14;101474.00;;;28.41;nan
2875;BME280;1445;52.600;13.328;2023-09-08T09:49:44;101476.38;;;28.61;nan
2875;BME280;1445;52.600;13.328;2023-09-08T09:52:15;101470.75;;;28.46;nan
2875;BME280;1445;52.600;13.328;2023-09-08T09:54:45;101469.50;;;28.65;nan
2875;BME280;1445;52.600;13.328;2023-09-08T09:57:13;101479.63;;;28.66;nan
2875;BME280;1445;52.600;13.328;2023-09-08T09:59:42;101464.53;;;28.94;nan
2875;BME280;1445;52.600;13.328;2023-09-08T10:02:14;101459.56;;;29.27;nan
2875;BME280;1445;52.600;13.328;2023-09-08T10:04:41;101456.88;;;29.72;nan
2875;BME280;1445;52.600;13.328;2023-09-08T10:07:07;101457.25;;;29.81;nan
2875;BME280;1445;52.600;13.328;2023-09-08T10:09:33;101461.03;;;30.16;nan
2875;BME280;1445;52.600;13.328;2023-09-08T10:12:04;101454.84;;;28.85;nan
2875;BME280;1445;52.600;13.328;2023-09-08T10:14:31;101453.66;;;29.74;nan
2875;BME280;1445;52.600;13.328;2023-09-08T10:16:59;101447.94;;;30.29;nan
2875;BME280;1445;52.600;13.328;2023-09-08T10:19:27;101450.63;;;30.81;nan
2875;BME280;1445;52.600;13.328;2023-09-08T10:21:55;101449.47;;;31.09;nan
2875;BME280;1445;52.600;13.328;2023-09-08T10:24:27;101444.56;;;31.71;nan
2875;BME280;1445;52.600;13.328;2023-09-08T10:27:04;101449.50;;;32.18;nan
2875;BME280;1445;52.600;13.328;2023-09-08T10:29:31;101441.78;;;32.42;nan
2875;BME280;1445;52.600;13.328;2023-09-08T10:31:58;101445.22;;;32.53;nan
2875;BME280;1445;52.600;13.328;2023-09-08T10:34:24;101442.31;;;32.76;nan
2875;BME280;1445;52.600;13.328;2023-09-08T10:36:52;101445.81;;;32.64;nan
2875;BME280;1445;52.600;13.328;2023-09-08T10:39:28;101434.88;;;32.83;nan
2875;BME280;1445;52.600;13.328;2023-09-08T10:44:58;101431.41;;;34.00;nan
2875;BME280;1445;52.600;13.328;2023-09-08T10:47:26;101429.63;;;34.06;nan
2875;BME280;1445;52.600;13.328;2023-09-08T10:49:55;101426.00;;;34.18;nan
2875;BME280;1445;52.600;13.328;2023-09-08T10:52:23;101426.72;;;33.57;nan
2875;BME280;1445;52.600;13.328;2023-09-08T10:54:51;101426.63;;;33.61;nan
2875;BME280;1445;52.600;13.328;2023-09-08T10:57:26;101432.47;;;34.06;nan
2875;BME280;1445;52.600;13.328;2023-09-08T10:59:59;101426.94;;;34.15;nan
2875;BME280;1445;52.600;13.328;2023-09-08T11:05:11;101428.59;;;33.96;nan
2875;BME280;1445;52.600;13.328;2023-09-08T11:07:39;101429.34;;;34.62;nan
2875;BME280;1445;52.600;13.328;2023-09-08T11:10:07;101423.97;;;35.06;nan
2875;BME280;1445;52.600;13.328;2023-09-08T11:12:33;101418.63;;;35.34;nan
2875;BME280;1445;52.600;13.328;2023-09-08T11:14:59;101417.03;;;35.84;nan
2875;BME280;1445;52.600;13.328;2023-09-08T11:17:33;101417.38;;;36.34;nan
2875;BME280;1445;52.600;13.328;2023-09-08T11:20:00;101421.16;;;35.83;nan
2875;BME280;1445;52.600;13.328;2023-09-08T11:22:26;101419.84;;;33.18;nan
2875;BME280;1445;52.600;13.328;2023-09-08T11:24:53;101424.69;;;34.07;nan
2875;BME280;1445;52.600;13.328;2023-09-08T11:27:20;101428.88;;;34.64;nan
2875;BME280;1445;52.600;13.328;2023-09-08T11:29:47;101420.78;;;35.04;nan
2875;BME280;1445;52.600;13.328;2023-09-08T11:32:13;101413.16;;;35.52;nan
2875;BME280;1445;52.600;13.328;2023-09-08T11:34:38;101408.69;;;36.46;nan
2875;BME280;1445;52.600;13.328;2023-09-08T11:37:10;101406.63;;;37.04;nan
2875;BME280;1445;52.600;13.328;2023-09-08T11:39:41;101409.00;;;37.05;nan
2875;BME280;1445;52.600;13.328;2023-09-08T11:42:08;101410.88;;;36.77;nan
2875;BME280;1445;52.600;13.328;2023-09-08T11:44:34;101401.31;;;35.50;nan
2875;BME280;1445;52.600;13.328;2023-09-08T11:47:05;101402.44;;;36.61;nan
2875;BME280;1445;52.600;13.328;2023-09-08T11:52:01;101400.03;;;37.03;nan
2875;BME280;1445;52.600;13.328;2023-09-08T11:54:27;101395.66;;;38.10;nan
2875;BME280;1445;52.600;13.328;2023-09-08T11:56:54;101399.31;;;36.68;nan
2875;BME280;1445;52.600;13.328;2023-09-08T11:59:20;101388.78;;;37.18;nan
2875;BME280;1445;52.600;13.328;2023-09-08T12:01:46;101393.34;;;37.37;nan
2875;BME280;1445;52.600;13.328;2023-09-08T12:04:18;101383.84;;;37.49;nan
2875;BME280;1445;52.600;13.328;2023-09-08T12:06:47;101374.56;;;37.45;nan
2875;BME280;1445;52.600;13.328;2023-09-08T12:09:13;101374.84;;;38.15;nan
2875;BME280;1445;52.600;13.328;2023-09-08T12:11:39;101366.72;;;38.41;nan
2875;BME280;1445;52.600;13.328;2023-09-08T12:14:10;101373.66;;;39.05;nan
2875;BME280;1445;52.600;13.328;2023-09-08T12:16:36;101362.09;;;39.47;nan
2875;BME280;1445;52.600;13.328;2023-09-08T12:19:01;101361.69;;;39.88;nan
2875;BME280;1445;52.600;13.328;2023-09-08T12:21:27;101356.09;;;40.08;nan
2875;BME280;1445;52.600;13.328;2023-09-08T12:23:53;101360.91;;;40.80;nan
2875;BME280;1445;52.600;13.328;2023-09-08T12:26:20;101362.16;;;38.77;nan
2875;BME280;1445;52.600;13.328;2023-09-08T12:28:46;101353.09;;;39.54;nan
2875;BME280;1445;52.600;13.328;2023-09-08T12:31:13;101347.06;;;39.01;nan
2875;BME280;1445;52.600;13.328;2023-09-08T12:33:39;101343.56;;;38.97;nan
2875;BME280;1445;52.600;13.328;2023-09-08T12:36:17;101344.97;;;39.44;nan
2875;BME280;1445;52.600;13.328;2023-09-08T12:38:52;101351.22;;;40.97;nan
2875;BME280;1445;52.600;13.328;2023-09-08T12:41:18;101346.53;;;40.41;nan
2875;BME280;1445;52.600;13.328;2023-09-08T12:43:45;101344.88;;;40.64;nan
2875;BME280;1445;52.600;13.328;2023-09-08T12:46:10;101348.03;;;39.40;nan
2875;BME280;1445;52.600;13.328;2023-09-08T12:48:37;101342.44;;;39.36;nan
2875;BME280;1445;52.600;13.328;2023-09-08T12:51:02;101344.72;;;40.43;nan
2875;BME280;1445;52.600;13.328;2023-09-08T12:53:33;101344.69;;;39.90;nan
2875;BME280;1445;52.600;13.328;2023-09-08T12:56:00;101339.94;;;39.53;nan
2875;BME280;1445;52.600;13.328;2023-09-08T12:58:25;101334.69;;;40.68;nan
2875;BME280;1445;52.600;13.328;2023-09-08T13:00:52;101324.72;;;42.10;nan
2875;BME280;1445;52.600;13.328;2023-09-08T13:03:18;101329.94;;;42.27;nan
2875;BME280;1445;52.600;13.328;2023-09-08T13:05:43;101319.56;;;43.04;nan
2875;BME280;1445;52.600;13.328;2023-09-08T13:08:09;101316.38;;;43.39;nan
2875;BME280;1445;52.600;13.328;2023-09-08T13:10:37;101318.47;;;43.01;nan
2875;BME280;1445;52.600;13.328;2023-09-08T13:13:03;101319.53;;;42.40;nan
2875;BME280;1445;52.600;13.328;2023-09-08T13:15:29;101315.56;;;42.38;nan
2875;BME280;1445;52.600;13.328;2023-09-08T13:17:55;101311.94;;;42.75;nan
2875;BME280;1445;52.600;13.328;2023-09-08T13:20:21;101312.69;;;41.97;nan
2875;BME280;1445;52.600;13.328;2023-09-08T13:22:47;101311.63;;;42.41;nan
2875;BME280;1445;52.600;13.328;2023-09-08T13:25:13;101314.22;;;42.13;nan
2875;BME280;1445;52.600;13.328;2023-09-08T13:27:41;101306.31;;;42.97;nan
2875;BME280;1445;52.600;13.328;2023-09-08T13:30:16;101303.44;;;43.40;nan
2875;BME280;1445;52.600;13.328;2023-09-08T13:32:43;101299.94;;;42.61;nan
2875;BME280;1445;52.600;13.328;2023-09-08T13:35:09;101292.28;;;43.76;nan